sensor_id;sensor_type;location;lat;lon;timestamp;P1;durP1;ratioP1;P2;durP2;ratioP2
72601;SDS011;60644;55.858;37.390;2023-07-30T00:01:07;8.87;;;5.13;;
72601;SDS011;60644;55.858;37.390;2023-07-30T00:03:32;10.27;;;5.37;;
72601;SDS011;60644;55.858;37.390;2023-07-30T00:05:58;9.63;;;5.27;;
72601;SDS011;60644;55.858;37.390;2023-07-30T00:08:24;10.40;;;5.47;;
72601;SDS011;60644;55.858;37.390;2023-07-30T00:10:49;9.93;;;5.33;;
72601;SDS011;60644;55.858;37.390;2023-07-30T00:13:15;10.35;;;4.88;;
72601;SDS011;60644;55.858;37.390;2023-07-30T00:15:41;8.93;;;4.93;;
72601;SDS011;60644;55.858;37.390;2023-07-30T00:18:07;10.50;;;5.18;;
72601;SDS011;60644;55.858;37.390;2023-07-30T00:20:34;9.03;;;4.90;;
72601;SDS011;60644;55.858;37.390;2023-07-30T00:22:59;11.75;;;4.80;;
72601;SDS011;60644;55.858;37.390;2023-07-30T00:25:25;10.93;;;5.53;;
72601;SDS011;60644;55.858;37.390;2023-07-30T00:27:50;8.85;;;5.07;;
72601;SDS011;60644;55.858;37.390;2023-07-30T00:30:16;9.23;;;4.83;;
72601;SDS011;60644;55.858;37.390;2023-07-30T00:32:42;13.77;;;5.70;;
72601;SDS011;60644;55.858;37.390;2023-07-30T00:35:09;8.87;;;5.00;;
72601;SDS011;60644;55.858;37.390;2023-07-30T00:37:35;8.48;;;4.85;;
72601;SDS011;60644;55.858;37.390;2023-07-30T00:40:01;8.65;;;5.57;;
72601;SDS011;60644;55.858;37.390;2023-07-30T00:42:29;11.03;;;5.63;;
72601;SDS011;60644;55.858;37.390;2023-07-30T00:44:54;10.57;;;5.50;;
72601;SDS011;60644;55.858;37.390;2023-07-30T00:47:20;9.98;;;5.60;;
72601;SDS011;60644;55.858;37.390;2023-07-30T00:49:47;11.03;;;5.53;;
72601;SDS011;60644;55.858;37.390;2023-07-30T00:52:12;10.65;;;5.55;;
72601;SDS011;60644;55.858;37.390;2023-07-30T00:54:38;11.90;;;5.63;;
72601;SDS011;60644;55.858;37.390;2023-07-30T00:57:04;10.43;;;5.20;;
72601;SDS011;60644;55.858;37.390;2023-07-30T00:59:30;11.55;;;6.25;;
72601;SDS011;60644;55.858;37.390;2023-07-30T01:01:56;9.77;;;5.33;;
72601;SDS011;60644;55.858;37.390;2023-07-30T01:04:22;8.40;;;5.00;;
72601;SDS011;60644;55.858;37.390;2023-07-30T01:06:49;9.38;;;5.07;;
72601;SDS011;60644;55.858;37.390;2023-07-30T01:09:14;11.73;;;5.77;;
72601;SDS011;60644;55.858;37.390;2023-07-30T01:11:40;11.70;;;5.43;;
72601;SDS011;60644;55.858;37.390;2023-07-30T01:14:06;10.68;;;6.20;;
72601;SDS011;60644;55.858;37.390;2023-07-30T01:16:33;9.97;;;5.70;;
72601;SDS011;60644;55.858;37.390;2023-07-30T01:18:59;9.30;;;5.65;;
72601;SDS011;60644;55.858;37.390;2023-07-30T01:21:36;10.48;;;5.70;;
72601;SDS011;60644;55.858;37.390;2023-07-30T01:24:02;11.03;;;5.90;;
72601;SDS011;60644;55.858;37.390;2023-07-30T01:26:43;10.45;;;5.82;;
72601;SDS011;60644;55.858;37.390;2023-07-30T01:29:33;12.50;;;6.55;;
72601;SDS011;60644;55.858;37.390;2023-07-30T01:31:56;10.90;;;6.30;;
72601;SDS011;60644;55.858;37.390;2023-07-30T01:34:23;11.45;;;6.55;;
72601;SDS011;60644;55.858;37.390;2023-07-30T01:36:49;11.63;;;6.33;;
72601;SDS011;60644;55.858;37.390;2023-07-30T01:39:16;12.65;;;6.13;;
72601;SDS011;60644;55.858;37.390;2023-07-30T01:41:42;12.05;;;6.10;;
72601;SDS011;60644;55.858;37.390;2023-07-30T01:44:08;12.80;;;6.47;;
72601;SDS011;60644;55.858;37.390;2023-07-30T01:46:33;12.85;;;6.55;;
72601;SDS011;60644;55.858;37.390;2023-07-30T01:48:59;12.27;;;6.28;;
72601;SDS011;60644;55.858;37.390;2023-07-30T01:51:25;12.03;;;6.10;;
72601;SDS011;60644;55.858;37.390;2023-07-30T01:53:51;10.82;;;5.90;;
72601;SDS011;60644;55.858;37.390;2023-07-30T01:56:16;10.07;;;6.50;;
72601;SDS011;60644;55.858;37.390;2023-07-30T01:58:42;11.32;;;6.65;;
72601;SDS011;60644;55.858;37.390;2023-07-30T02:01:08;12.63;;;6.23;;
72601;SDS011;60644;55.858;37.390;2023-07-30T02:03:34;12.90;;;7.10;;
72601;SDS011;60644;55.858;37.390;2023-07-30T02:06:00;10.57;;;6.07;;
72601;SDS011;60644;55.858;37.390;2023-07-30T02:08:25;11.00;;;6.13;;
72601;SDS011;60644;55.858;37.390;2023-07-30T02:10:55;11.67;;;6.13;;
72601;SDS011;60644;55.858;37.390;2023-07-30T02:13:21;11.82;;;6.10;;
72601;SDS011;60644;55.858;37.390;2023-07-30T02:15:47;14.88;;;5.90;;
72601;SDS011;60644;55.858;37.390;2023-07-30T02:18:12;11.10;;;6.20;;
72601;SDS011;60644;55.858;37.390;2023-07-30T02:20:38;11.63;;;5.68;;
72601;SDS011;60644;55.858;37.390;2023-07-30T02:23:04;10.37;;;5.93;;
72601;SDS011;60644;55.858;37.390;2023-07-30T02:25:29;11.60;;;5.57;;
72601;SDS011;60644;55.858;37.390;2023-07-30T02:27:55;10.40;;;5.47;;
72601;SDS011;60644;55.858;37.390;2023-07-30T02:30:21;12.25;;;6.20;;
72601;SDS011;60644;55.858;37.390;2023-07-30T02:32:47;9.90;;;5.40;;
72601;SDS011;60644;55.858;37.390;2023-07-30T02:35:14;10.55;;;5.95;;
72601;SDS011;60644;55.858;37.390;2023-07-30T02:37:39;9.73;;;5.83;;
72601;SDS011;60644;55.858;37.390;2023-07-30T02:40:05;10.43;;;5.80;;
72601;SDS011;60644;55.858;37.390;2023-07-30T02:42:31;9.73;;;5.25;;
72601;SDS011;60644;55.858;37.390;2023-07-30T02:44:57;12.37;;;5.50;;
72601;SDS011;60644;55.858;37.390;2023-07-30T02:47:23;9.70;;;4.68;;
72601;SDS011;60644;55.858;37.390;2023-07-30T02:49:49;9.40;;;5.13;;
72601;SDS011;60644;55.858;37.390;2023-07-30T02:52:15;9.88;;;4.78;;
72601;SDS011;60644;55.858;37.390;2023-07-30T02:54:41;8.15;;;4.35;;
72601;SDS011;60644;55.858;37.390;2023-07-30T02:57:06;7.70;;;4.17;;
72601;SDS011;60644;55.858;37.390;2023-07-30T02:59:32;12.53;;;4.60;;
72601;SDS011;60644;55.858;37.390;2023-07-30T03:02:02;7.93;;;3.90;;
72601;SDS011;60644;55.858;37.390;2023-07-30T03:04:27;10.93;;;4.22;;
72601;SDS011;60644;55.858;37.390;2023-07-30T03:06:53;9.00;;;4.37;;
72601;SDS011;60644;55.858;37.390;2023-07-30T03:09:19;8.80;;;4.85;;
72601;SDS011;60644;55.858;37.390;2023-07-30T03:11:44;8.70;;;4.03;;
72601;SDS011;60644;55.858;37.390;2023-07-30T03:14:10;8.35;;;4.45;;
72601;SDS011;60644;55.858;37.390;2023-07-30T03:16:35;9.17;;;4.23;;
72601;SDS011;60644;55.858;37.390;2023-07-30T03:19:01;7.50;;;4.00;;
72601;SDS011;60644;55.858;37.390;2023-07-30T03:21:27;7.50;;;4.03;;
72601;SDS011;60644;55.858;37.390;2023-07-30T03:23:52;9.57;;;4.40;;
72601;SDS011;60644;55.858;37.390;2023-07-30T03:26:18;10.07;;;4.40;;
72601;SDS011;60644;55.858;37.390;2023-07-30T03:28:43;10.53;;;4.30;;
72601;SDS011;60644;55.858;37.390;2023-07-30T03:31:09;7.67;;;3.80;;
72601;SDS011;60644;55.858;37.390;2023-07-30T03:33:35;8.52;;;3.90;;
72601;SDS011;60644;55.858;37.390;2023-07-30T03:36:00;7.63;;;4.33;;
72601;SDS011;60644;55.858;37.390;2023-07-30T03:38:26;7.65;;;4.03;;
72601;SDS011;60644;55.858;37.390;2023-07-30T03:40:52;9.10;;;4.00;;
72601;SDS011;60644;55.858;37.390;2023-07-30T03:43:17;6.95;;;3.80;;
72601;SDS011;60644;55.858;37.390;2023-07-30T03:45:43;7.93;;;4.13;;
72601;SDS011;60644;55.858;37.390;2023-07-30T03:48:09;8.80;;;3.95;;
72601;SDS011;60644;55.858;37.390;2023-07-30T03:50:34;8.20;;;4.23;;
72601;SDS011;60644;55.858;37.390;2023-07-30T03:53:00;8.87;;;4.47;;
72601;SDS011;60644;55.858;37.390;2023-07-30T03:55:26;8.52;;;3.78;;
72601;SDS011;60644;55.858;37.390;2023-07-30T03:57:53;7.53;;;3.78;;
72601;SDS011;60644;55.858;37.390;2023-07-30T04:00:19;7.27;;;4.07;;
72601;SDS011;60644;55.858;37.390;2023-07-30T04:02:44;8.80;;;3.58;;
72601;SDS011;60644;55.858;37.390;2023-07-30T04:05:10;8.70;;;3.60;;
72601;SDS011;60644;55.858;37.390;2023-07-30T04:07:36;7.30;;;3.10;;
72601;SDS011;60644;55.858;37.390;2023-07-30T04:10:02;8.20;;;3.50;;
72601;SDS011;60644;55.858;37.390;2023-07-30T04:12:30;9.32;;;3.53;;
72601;SDS011;60644;55.858;37.390;2023-07-30T04:14:55;6.47;;;2.90;;
72601;SDS011;60644;55.858;37.390;2023-07-30T04:17:21;8.18;;;2.85;;
72601;SDS011;60644;55.858;37.390;2023-07-30T04:19:48;7.53;;;3.47;;
72601;SDS011;60644;55.858;37.390;2023-07-30T04:22:14;8.43;;;3.33;;
72601;SDS011;60644;55.858;37.390;2023-07-30T04:24:40;7.43;;;3.20;;
72601;SDS011;60644;55.858;37.390;2023-07-30T04:27:06;9.23;;;3.57;;
72601;SDS011;60644;55.858;37.390;2023-07-30T04:29:31;7.90;;;2.92;;
72601;SDS011;60644;55.858;37.390;2023-07-30T04:31:57;6.55;;;2.90;;
72601;SDS011;60644;55.858;37.390;2023-07-30T04:34:23;7.43;;;2.90;;
72601;SDS011;60644;55.858;37.390;2023-07-30T04:36:48;6.77;;;2.73;;
72601;SDS011;60644;55.858;37.390;2023-07-30T04:39:14;6.07;;;2.70;;
72601;SDS011;60644;55.858;37.390;2023-07-30T04:41:39;7.03;;;2.87;;
72601;SDS011;60644;55.858;37.390;2023-07-30T04:44:05;6.65;;;2.50;;
72601;SDS011;60644;55.858;37.390;2023-07-30T04:46:31;7.53;;;2.83;;
72601;SDS011;60644;55.858;37.390;2023-07-30T04:49:01;7.25;;;2.78;;
72601;SDS011;60644;55.858;37.390;2023-07-30T04:51:26;6.00;;;2.35;;
72601;SDS011;60644;55.858;37.390;2023-07-30T04:53:52;7.30;;;2.40;;
72601;SDS011;60644;55.858;37.390;2023-07-30T04:56:18;6.30;;;2.53;;
72601;SDS011;60644;55.858;37.390;2023-07-30T04:58:44;6.68;;;2.50;;
72601;SDS011;60644;55.858;37.390;2023-07-30T05:01:09;5.63;;;2.53;;
72601;SDS011;60644;55.858;37.390;2023-07-30T05:03:35;6.88;;;2.53;;
72601;SDS011;60644;55.858;37.390;2023-07-30T05:06:01;6.13;;;2.17;;
72601;SDS011;60644;55.858;37.390;2023-07-30T05:08:26;6.43;;;1.87;;
72601;SDS011;60644;55.858;37.390;2023-07-30T05:10:52;6.20;;;2.47;;
72601;SDS011;60644;55.858;37.390;2023-07-30T05:13:18;5.60;;;2.37;;
72601;SDS011;60644;55.858;37.390;2023-07-30T05:15:43;7.60;;;2.85;;
72601;SDS011;60644;55.858;37.390;2023-07-30T05:18:09;6.73;;;2.43;;
72601;SDS011;60644;55.858;37.390;2023-07-30T05:20:34;7.00;;;2.40;;
72601;SDS011;60644;55.858;37.390;2023-07-30T05:23:00;6.10;;;2.38;;
72601;SDS011;60644;55.858;37.390;2023-07-30T05:25:27;5.57;;;2.60;;
72601;SDS011;60644;55.858;37.390;2023-07-30T05:27:53;8.40;;;2.30;;
72601;SDS011;60644;55.858;37.390;2023-07-30T05:30:18;5.10;;;2.17;;
72601;SDS011;60644;55.858;37.390;2023-07-30T05:32:44;6.80;;;2.17;;
72601;SDS011;60644;55.858;37.390;2023-07-30T05:35:10;6.38;;;2.20;;
72601;SDS011;60644;55.858;37.390;2023-07-30T05:37:36;7.20;;;2.23;;
72601;SDS011;60644;55.858;37.390;2023-07-30T05:40:02;6.03;;;2.00;;
72601;SDS011;60644;55.858;37.390;2023-07-30T05:42:30;5.80;;;2.13;;
72601;SDS011;60644;55.858;37.390;2023-07-30T05:44:55;6.33;;;2.20;;
72601;SDS011;60644;55.858;37.390;2023-07-30T05:47:21;5.00;;;2.03;;
72601;SDS011;60644;55.858;37.390;2023-07-30T05:49:47;5.30;;;2.03;;
72601;SDS011;60644;55.858;37.390;2023-07-30T05:52:13;6.32;;;2.13;;
72601;SDS011;60644;55.858;37.390;2023-07-30T05:54:39;5.28;;;1.98;;
72601;SDS011;60644;55.858;37.390;2023-07-30T05:57:05;5.87;;;2.00;;
72601;SDS011;60644;55.858;37.390;2023-07-30T05:59:30;5.47;;;1.90;;
72601;SDS011;60644;55.858;37.390;2023-07-30T06:01:56;5.90;;;2.00;;
72601;SDS011;60644;55.858;37.390;2023-07-30T06:04:23;5.78;;;2.33;;
72601;SDS011;60644;55.858;37.390;2023-07-30T06:06:49;4.97;;;2.00;;
72601;SDS011;60644;55.858;37.390;2023-07-30T06:09:14;5.47;;;1.60;;
72601;SDS011;60644;55.858;37.390;2023-07-30T06:11:40;6.80;;;1.98;;
72601;SDS011;60644;55.858;37.390;2023-07-30T06:14:06;5.27;;;1.63;;
72601;SDS011;60644;55.858;37.390;2023-07-30T06:16:31;6.17;;;1.90;;
72601;SDS011;60644;55.858;37.390;2023-07-30T06:18:57;7.40;;;1.80;;
72601;SDS011;60644;55.858;37.390;2023-07-30T06:21:23;4.93;;;1.70;;
72601;SDS011;60644;55.858;37.390;2023-07-30T06:23:48;5.10;;;1.63;;
72601;SDS011;60644;55.858;37.390;2023-07-30T06:29:49;5.78;;;1.83;;
72601;SDS011;60644;55.858;37.390;2023-07-30T06:32:16;4.88;;;1.65;;
72601;SDS011;60644;55.858;37.390;2023-07-30T06:34:41;4.70;;;1.90;;
72601;SDS011;60644;55.858;37.390;2023-07-30T06:37:07;4.95;;;2.00;;
72601;SDS011;60644;55.858;37.390;2023-07-30T06:39:33;4.87;;;1.77;;
72601;SDS011;60644;55.858;37.390;2023-07-30T06:41:58;8.47;;;2.00;;
72601;SDS011;60644;55.858;37.390;2023-07-30T06:44:26;5.00;;;1.90;;
72601;SDS011;60644;55.858;37.390;2023-07-30T06:46:52;5.15;;;1.48;;
72601;SDS011;60644;55.858;37.390;2023-07-30T06:49:17;5.10;;;1.60;;
72601;SDS011;60644;55.858;37.390;2023-07-30T06:51:43;4.40;;;1.40;;
72601;SDS011;60644;55.858;37.390;2023-07-30T06:54:09;6.07;;;1.70;;
72601;SDS011;60644;55.858;37.390;2023-07-30T06:56:34;3.92;;;1.42;;
72601;SDS011;60644;55.858;37.390;2023-07-30T06:59:01;4.43;;;1.50;;
72601;SDS011;60644;55.858;37.390;2023-07-30T07:01:27;4.20;;;1.50;;
72601;SDS011;60644;55.858;37.390;2023-07-30T07:03:52;4.47;;;1.63;;
72601;SDS011;60644;55.858;37.390;2023-07-30T07:06:18;4.50;;;1.70;;
72601;SDS011;60644;55.858;37.390;2023-07-30T07:08:44;5.07;;;1.70;;
72601;SDS011;60644;55.858;37.390;2023-07-30T07:11:09;3.63;;;1.35;;
72601;SDS011;60644;55.858;37.390;2023-07-30T07:13:35;4.43;;;1.30;;
72601;SDS011;60644;55.858;37.390;2023-07-30T07:16:01;4.90;;;1.77;;
72601;SDS011;60644;55.858;37.390;2023-07-30T07:18:26;5.70;;;1.70;;
72601;SDS011;60644;55.858;37.390;2023-07-30T07:20:52;3.95;;;1.48;;
72601;SDS011;60644;55.858;37.390;2023-07-30T07:23:18;5.33;;;1.67;;
72601;SDS011;60644;55.858;37.390;2023-07-30T07:25:44;3.50;;;1.35;;
72601;SDS011;60644;55.858;37.390;2023-07-30T07:28:09;5.03;;;1.70;;
72601;SDS011;60644;55.858;37.390;2023-07-30T07:30:35;5.75;;;1.95;;
72601;SDS011;60644;55.858;37.390;2023-07-30T07:33:04;4.78;;;1.90;;
72601;SDS011;60644;55.858;37.390;2023-07-30T07:35:31;6.03;;;1.65;;
72601;SDS011;60644;55.858;37.390;2023-07-30T07:37:57;4.73;;;2.07;;
72601;SDS011;60644;55.858;37.390;2023-07-30T07:40:22;5.40;;;2.30;;
72601;SDS011;60644;55.858;37.390;2023-07-30T07:42:48;6.60;;;2.17;;
72601;SDS011;60644;55.858;37.390;2023-07-30T07:45:14;4.68;;;2.03;;
72601;SDS011;60644;55.858;37.390;2023-07-30T07:47:39;4.93;;;2.27;;
72601;SDS011;60644;55.858;37.390;2023-07-30T07:50:05;4.75;;;2.10;;
72601;SDS011;60644;55.858;37.390;2023-07-30T07:52:32;6.65;;;2.00;;
72601;SDS011;60644;55.858;37.390;2023-07-30T07:54:58;5.30;;;1.83;;
72601;SDS011;60644;55.858;37.390;2023-07-30T07:57:23;5.85;;;1.60;;
72601;SDS011;60644;55.858;37.390;2023-07-30T07:59:49;4.53;;;1.90;;
72601;SDS011;60644;55.858;37.390;2023-07-30T08:02:15;4.90;;;1.65;;
72601;SDS011;60644;55.858;37.390;2023-07-30T08:04:40;4.22;;;1.40;;
72601;SDS011;60644;55.858;37.390;2023-07-30T08:07:06;3.43;;;1.13;;
72601;SDS011;60644;55.858;37.390;2023-07-30T08:09:32;4.93;;;1.50;;
72601;SDS011;60644;55.858;37.390;2023-07-30T08:11:58;3.80;;;1.30;;
72601;SDS011;60644;55.858;37.390;2023-07-30T08:14:24;3.80;;;1.17;;
72601;SDS011;60644;55.858;37.390;2023-07-30T08:16:50;3.53;;;1.13;;
72601;SDS011;60644;55.858;37.390;2023-07-30T08:19:15;4.75;;;1.08;;
72601;SDS011;60644;55.858;37.390;2023-07-30T08:21:41;4.33;;;1.30;;
72601;SDS011;60644;55.858;37.390;2023-07-30T08:24:07;4.43;;;1.50;;
72601;SDS011;60644;55.858;37.390;2023-07-30T08:26:33;4.40;;;1.23;;
72601;SDS011;60644;55.858;37.390;2023-07-30T08:28:58;4.25;;;1.15;;
72601;SDS011;60644;55.858;37.390;2023-07-30T08:31:24;4.80;;;1.40;;
72601;SDS011;60644;55.858;37.390;2023-07-30T08:33:50;4.78;;;1.30;;
72601;SDS011;60644;55.858;37.390;2023-07-30T08:36:15;3.70;;;1.23;;
72601;SDS011;60644;55.858;37.390;2023-07-30T08:38:41;3.75;;;1.10;;
72601;SDS011;60644;55.858;37.390;2023-07-30T08:41:07;3.70;;;1.30;;
72601;SDS011;60644;55.858;37.390;2023-07-30T08:43:33;3.83;;;1.10;;
72601;SDS011;60644;55.858;37.390;2023-07-30T08:45:59;4.18;;;1.17;;
72601;SDS011;60644;55.858;37.390;2023-07-30T08:48:25;3.23;;;0.90;;
72601;SDS011;60644;55.858;37.390;2023-07-30T08:50:51;4.50;;;1.10;;
72601;SDS011;60644;55.858;37.390;2023-07-30T08:53:17;4.15;;;1.38;;
72601;SDS011;60644;55.858;37.390;2023-07-30T08:55:43;3.63;;;1.17;;
72601;SDS011;60644;55.858;37.390;2023-07-30T08:58:10;3.77;;;1.00;;
72601;SDS011;60644;55.858;37.390;2023-07-30T09:00:37;4.60;;;1.23;;
72601;SDS011;60644;55.858;37.390;2023-07-30T09:03:04;4.80;;;1.33;;
72601;SDS011;60644;55.858;37.390;2023-07-30T09:05:30;4.82;;;1.00;;
72601;SDS011;60644;55.858;37.390;2023-07-30T09:07:56;4.25;;;1.25;;
72601;SDS011;60644;55.858;37.390;2023-07-30T09:10:22;3.80;;;1.10;;
72601;SDS011;60644;55.858;37.390;2023-07-30T09:12:54;7.68;;;1.95;;
72601;SDS011;60644;55.858;37.390;2023-07-30T09:15:28;3.75;;;1.10;;
72601;SDS011;60644;55.858;37.390;2023-07-30T09:17:55;3.67;;;1.30;;
72601;SDS011;60644;55.858;37.390;2023-07-30T09:20:21;4.53;;;1.17;;
72601;SDS011;60644;55.858;37.390;2023-07-30T09:22:46;6.53;;;1.30;;
72601;SDS011;60644;55.858;37.390;2023-07-30T09:25:14;3.92;;;1.55;;
72601;SDS011;60644;55.858;37.390;2023-07-30T09:27:47;4.27;;;1.40;;
72601;SDS011;60644;55.858;37.390;2023-07-30T09:30:12;3.88;;;1.42;;
72601;SDS011;60644;55.858;37.390;2023-07-30T09:32:38;3.55;;;1.15;;
72601;SDS011;60644;55.858;37.390;2023-07-30T09:35:08;4.67;;;1.70;;
72601;SDS011;60644;55.858;37.390;2023-07-30T09:37:38;3.83;;;1.35;;
72601;SDS011;60644;55.858;37.390;2023-07-30T09:40:05;5.13;;;1.38;;
72601;SDS011;60644;55.858;37.390;2023-07-30T09:42:31;7.15;;;1.20;;
72601;SDS011;60644;55.858;37.390;2023-07-30T09:44:59;7.28;;;2.20;;
72601;SDS011;60644;55.858;37.390;2023-07-30T09:47:26;5.93;;;1.00;;
72601;SDS011;60644;55.858;37.390;2023-07-30T09:49:53;5.40;;;1.50;;
72601;SDS011;60644;55.858;37.390;2023-07-30T09:52:19;4.38;;;1.40;;
72601;SDS011;60644;55.858;37.390;2023-07-30T09:54:45;7.38;;;1.80;;
72601;SDS011;60644;55.858;37.390;2023-07-30T09:57:10;4.90;;;1.93;;
72601;SDS011;60644;55.858;37.390;2023-07-30T09:59:36;4.55;;;1.80;;
72601;SDS011;60644;55.858;37.390;2023-07-30T10:02:04;3.63;;;1.07;;
72601;SDS011;60644;55.858;37.390;2023-07-30T10:04:30;5.50;;;1.30;;
72601;SDS011;60644;55.858;37.390;2023-07-30T10:07:01;4.53;;;1.15;;
72601;SDS011;60644;55.858;37.390;2023-07-30T10:09:30;4.90;;;1.58;;
72601;SDS011;60644;55.858;37.390;2023-07-30T10:11:57;3.17;;;1.00;;
72601;SDS011;60644;55.858;37.390;2023-07-30T10:14:24;4.43;;;1.30;;
72601;SDS011;60644;55.858;37.390;2023-07-30T10:16:51;4.25;;;1.00;;
72601;SDS011;60644;55.858;37.390;2023-07-30T10:19:17;3.55;;;0.90;;
72601;SDS011;60644;55.858;37.390;2023-07-30T10:21:47;5.55;;;1.73;;
72601;SDS011;60644;55.858;37.390;2023-07-30T10:24:12;4.00;;;1.00;;
72601;SDS011;60644;55.858;37.390;2023-07-30T10:26:38;3.63;;;1.25;;
72601;SDS011;60644;55.858;37.390;2023-07-30T10:29:14;4.60;;;1.10;;
72601;SDS011;60644;55.858;37.390;2023-07-30T10:31:40;4.55;;;1.75;;
72601;SDS011;60644;55.858;37.390;2023-07-30T10:34:07;4.45;;;1.20;;
72601;SDS011;60644;55.858;37.390;2023-07-30T10:36:34;4.95;;;1.63;;
72601;SDS011;60644;55.858;37.390;2023-07-30T10:39:47;3.75;;;1.20;;
72601;SDS011;60644;55.858;37.390;2023-07-30T10:41:51;6.23;;;2.03;;
72601;SDS011;60644;55.858;37.390;2023-07-30T10:44:25;4.32;;;1.17;;
72601;SDS011;60644;55.858;37.390;2023-07-30T10:46:53;4.68;;;1.38;;
72601;SDS011;60644;55.858;37.390;2023-07-30T10:49:19;3.22;;;0.95;;
72601;SDS011;60644;55.858;37.390;2023-07-30T10:51:45;4.10;;;1.10;;
72601;SDS011;60644;55.858;37.390;2023-07-30T10:54:10;4.43;;;1.70;;
72601;SDS011;60644;55.858;37.390;2023-07-30T10:56:36;4.00;;;1.47;;
72601;SDS011;60644;55.858;37.390;2023-07-30T10:59:06;6.43;;;1.90;;
72601;SDS011;60644;55.858;37.390;2023-07-30T11:01:39;4.80;;;1.60;;
72601;SDS011;60644;55.858;37.390;2023-07-30T11:04:06;3.80;;;1.27;;
72601;SDS011;60644;55.858;37.390;2023-07-30T11:06:31;5.38;;;1.50;;
72601;SDS011;60644;55.858;37.390;2023-07-30T11:08:57;4.57;;;1.50;;
72601;SDS011;60644;55.858;37.390;2023-07-30T11:11:23;3.95;;;1.40;;
72601;SDS011;60644;55.858;37.390;2023-07-30T11:13:50;4.40;;;1.30;;
72601;SDS011;60644;55.858;37.390;2023-07-30T11:16:16;3.30;;;1.35;;
72601;SDS011;60644;55.858;37.390;2023-07-30T11:18:43;5.60;;;2.28;;
72601;SDS011;60644;55.858;37.390;2023-07-30T11:21:09;4.73;;;1.73;;
72601;SDS011;60644;55.858;37.390;2023-07-30T11:23:36;5.22;;;1.70;;
72601;SDS011;60644;55.858;37.390;2023-07-30T11:26:02;5.32;;;1.98;;
72601;SDS011;60644;55.858;37.390;2023-07-30T11:28:29;5.78;;;2.15;;
72601;SDS011;60644;55.858;37.390;2023-07-30T11:30:57;4.22;;;2.03;;
72601;SDS011;60644;55.858;37.390;2023-07-30T11:33:24;4.63;;;1.47;;
72601;SDS011;60644;55.858;37.390;2023-07-30T11:35:50;4.32;;;1.50;;
72601;SDS011;60644;55.858;37.390;2023-07-30T11:38:15;6.60;;;1.50;;
72601;SDS011;60644;55.858;37.390;2023-07-30T11:40:42;5.90;;;2.78;;
72601;SDS011;60644;55.858;37.390;2023-07-30T11:43:08;5.28;;;1.70;;
72601;SDS011;60644;55.858;37.390;2023-07-30T11:45:35;5.78;;;2.25;;
72601;SDS011;60644;55.858;37.390;2023-07-30T11:48:07;4.83;;;1.50;;
72601;SDS011;60644;55.858;37.390;2023-07-30T11:50:52;4.85;;;1.50;;
72601;SDS011;60644;55.858;37.390;2023-07-30T11:53:18;7.18;;;2.67;;
72601;SDS011;60644;55.858;37.390;2023-07-30T11:55:44;4.25;;;1.60;;
72601;SDS011;60644;55.858;37.390;2023-07-30T11:58:11;17.73;;;9.85;;
72601;SDS011;60644;55.858;37.390;2023-07-30T12:00:37;13.27;;;7.50;;
72601;SDS011;60644;55.858;37.390;2023-07-30T12:03:03;3.88;;;1.63;;
72601;SDS011;60644;55.858;37.390;2023-07-30T12:05:36;4.38;;;1.90;;
72601;SDS011;60644;55.858;37.390;2023-07-30T12:08:02;5.53;;;2.22;;
72601;SDS011;60644;55.858;37.390;2023-07-30T12:10:45;5.78;;;2.17;;
72601;SDS011;60644;55.858;37.390;2023-07-30T12:13:20;4.33;;;1.60;;
72601;SDS011;60644;55.858;37.390;2023-07-30T12:15:53;3.60;;;1.10;;
72601;SDS011;60644;55.858;37.390;2023-07-30T12:18:19;4.45;;;1.30;;
72601;SDS011;60644;55.858;37.390;2023-07-30T12:20:46;4.07;;;1.20;;
72601;SDS011;60644;55.858;37.390;2023-07-30T12:23:12;5.25;;;1.48;;
72601;SDS011;60644;55.858;37.390;2023-07-30T12:25:37;5.83;;;2.70;;
72601;SDS011;60644;55.858;37.390;2023-07-30T12:28:03;4.65;;;1.73;;
72601;SDS011;60644;55.858;37.390;2023-07-30T12:30:29;3.93;;;1.43;;
72601;SDS011;60644;55.858;37.390;2023-07-30T12:32:55;3.88;;;1.20;;
72601;SDS011;60644;55.858;37.390;2023-07-30T12:35:21;4.13;;;1.47;;
72601;SDS011;60644;55.858;37.390;2023-07-30T12:37:49;5.07;;;1.40;;
72601;SDS011;60644;55.858;37.390;2023-07-30T12:40:15;4.72;;;1.23;;
72601;SDS011;60644;55.858;37.390;2023-07-30T12:42:41;6.82;;;2.78;;
72601;SDS011;60644;55.858;37.390;2023-07-30T12:45:07;4.33;;;1.47;;
72601;SDS011;60644;55.858;37.390;2023-07-30T12:47:33;5.65;;;1.92;;
72601;SDS011;60644;55.858;37.390;2023-07-30T12:50:01;3.40;;;1.40;;
72601;SDS011;60644;55.858;37.390;2023-07-30T12:52:30;3.85;;;1.20;;
72601;SDS011;60644;55.858;37.390;2023-07-30T12:54:56;3.67;;;1.10;;
72601;SDS011;60644;55.858;37.390;2023-07-30T12:57:22;3.95;;;1.20;;
72601;SDS011;60644;55.858;37.390;2023-07-30T12:59:47;3.93;;;1.50;;
72601;SDS011;60644;55.858;37.390;2023-07-30T13:02:13;4.60;;;1.60;;
72601;SDS011;60644;55.858;37.390;2023-07-30T13:04:39;5.00;;;1.60;;
72601;SDS011;60644;55.858;37.390;2023-07-30T13:07:04;3.75;;;1.40;;
72601;SDS011;60644;55.858;37.390;2023-07-30T13:09:30;5.17;;;1.77;;
72601;SDS011;60644;55.858;37.390;2023-07-30T13:11:56;5.80;;;2.00;;
72601;SDS011;60644;55.858;37.390;2023-07-30T13:14:21;4.90;;;1.70;;
72601;SDS011;60644;55.858;37.390;2023-07-30T13:16:47;6.63;;;2.33;;
72601;SDS011;60644;55.858;37.390;2023-07-30T13:19:13;5.37;;;1.80;;
72601;SDS011;60644;55.858;37.390;2023-07-30T13:21:39;5.13;;;1.50;;
72601;SDS011;60644;55.858;37.390;2023-07-30T13:24:04;5.73;;;1.37;;
72601;SDS011;60644;55.858;37.390;2023-07-30T13:26:30;4.90;;;1.30;;
72601;SDS011;60644;55.858;37.390;2023-07-30T13:28:56;5.15;;;1.90;;
72601;SDS011;60644;55.858;37.390;2023-07-30T13:31:22;5.50;;;1.57;;
72601;SDS011;60644;55.858;37.390;2023-07-30T13:33:47;3.92;;;1.40;;
72601;SDS011;60644;55.858;37.390;2023-07-30T13:36:13;6.30;;;1.90;;
72601;SDS011;60644;55.858;37.390;2023-07-30T13:38:39;6.13;;;1.50;;
72601;SDS011;60644;55.858;37.390;2023-07-30T13:41:06;4.25;;;1.35;;
72601;SDS011;60644;55.858;37.390;2023-07-30T13:43:32;5.53;;;1.97;;
72601;SDS011;60644;55.858;37.390;2023-07-30T13:46:01;4.67;;;1.40;;
72601;SDS011;60644;55.858;37.390;2023-07-30T13:48:27;3.67;;;1.20;;
72601;SDS011;60644;55.858;37.390;2023-07-30T13:50:53;6.28;;;2.03;;
72601;SDS011;60644;55.858;37.390;2023-07-30T13:53:19;5.60;;;1.40;;
72601;SDS011;60644;55.858;37.390;2023-07-30T13:55:45;6.15;;;1.67;;
72601;SDS011;60644;55.858;37.390;2023-07-30T13:58:10;3.05;;;0.90;;
72601;SDS011;60644;55.858;37.390;2023-07-30T14:00:36;3.87;;;1.00;;
72601;SDS011;60644;55.858;37.390;2023-07-30T14:03:02;4.40;;;1.13;;
72601;SDS011;60644;55.858;37.390;2023-07-30T14:05:28;3.15;;;0.80;;
72601;SDS011;60644;55.858;37.390;2023-07-30T14:07:54;3.87;;;1.03;;
72601;SDS011;60644;55.858;37.390;2023-07-30T14:10:22;4.68;;;1.55;;
72601;SDS011;60644;55.858;37.390;2023-07-30T14:12:48;4.28;;;1.25;;
72601;SDS011;60644;55.858;37.390;2023-07-30T14:15:14;6.32;;;0.93;;
72601;SDS011;60644;55.858;37.390;2023-07-30T14:17:40;3.90;;;0.83;;
72601;SDS011;60644;55.858;37.390;2023-07-30T14:20:06;3.08;;;1.05;;
72601;SDS011;60644;55.858;37.390;2023-07-30T14:22:32;5.30;;;1.23;;
72601;SDS011;60644;55.858;37.390;2023-07-30T14:24:58;2.92;;;1.10;;
72601;SDS011;60644;55.858;37.390;2023-07-30T14:27:24;4.90;;;1.30;;
72601;SDS011;60644;55.858;37.390;2023-07-30T14:29:50;4.32;;;1.13;;
72601;SDS011;60644;55.858;37.390;2023-07-30T14:32:17;4.13;;;0.93;;